Terminal Aerodrome Forecast
Issued by NWS Jacksonville, FL

Home | Current Version | Previous Version | Text Only | Print | Product List | Glossary On
Versions: 1 2 3 4 5 6 7 8 9 10 11 12 13 14 15 16 17 18 19 20 21 22 23 24
000
FTUS42 KJAX 191734
TAFSSI
TAF
KSSI 191734Z 1918/2018 19008KT P6SM VCSH FEW030
     FM192000 16010KT P6SM VCSH BKN040
     FM200000 21005KT P6SM SCT250
     FM201600 13008KT P6SM FEW040 FEW250=

USA.gov is the U.S. government's official web portal to all federal, state and local government web resources and services.